Mlawa, Poland

1:12 AM CEST on August 02, 2014 (GMT +0200)
Modlin Mil (EPMO) Elev 338 ft | 52.45 °N, 20.65 °E | Change Station

Current weather conditions updated 12 minutes ago

Clear
Clear
64 °F
Feels Like 64 °F
N
9
Wind Variable Wind from NE

Today is forecast to be Much Warmer than yesterday.

Today
High -- | Low -- °F
--% Chance of Precip.
Yesterday
High -- | Low -- °F
Precip. -- in
4:57 AM 8:31 PM
Waxing Crescent, 30% visible
Pressure 29.95 in
Visibility -9999.0 miles
Clouds
Dew Point 64 °F
Humidity 100%
Rainfall 0.00 in
Snow Depth Not available.
UV Not available.
Pollen Not available.
Air Quality Not available.
Flu Activity Not available.
METAR EPMO 012300Z 05008KT CAVOK 18/18 Q1014

More Conditions Fewer Conditions

Pressure 29.95 in
Visibility -9999.0 miles
Clouds
Dew Point 64 °F
Humidity 100%
Rainfall 0.00 in
Snow Depth Not available.
UV Not available.
Pollen Not available.
Air Quality Not available.
Flu Activity Not available.
METAR EPMO 012300Z 05008KT CAVOK 18/18 Q1014

More Conditions Fewer Conditions

10-Day Weather Forecast

Almanac

Astronomy

Aug. 02, 2014 Rise Set
Actual Time 4:57 AM CEST 8:31 PM CEST
Civil Twilight 4:14 AM CEST 9:13 PM CEST
Nautical Twilight 3:15 AM CEST 10:12 PM CEST
Astronomical Twilight 1:41 AM CEST 11:41 PM CEST
Moon 11:58 AM CEST (8/2) 10:38 PM CEST (8/2)
Length of Visible Light 16h 59m
Length of Day
15h 34m
Tomorrow will be 3m 26s shorter.
Waxing Crescent, 30% of the Moon is Illuminated
Aug 1
Waxing Crescent
Aug 3
First Quarter
Aug 10
Full
Aug 17
Last Quarter
Aug 25
New

Yesterday's Extremes

Country Highs Country Lows

Community

WunderPhotos

Upload Photos

1,739,752 photos uploaded!

Nearby

Snow Depth

Not available.

Earthquake Activity

City Distance Mag. Time & Date
No recent earthquake activity has been reported nearby.
Minimum magnitude displayed is 2.5.

Coastal Water Temperatures

Place Temperature
No Stations Reporting

Nearby Weather Stations

There are no personal weather stations in this area.